Terminal Aerodrome Forecast
Issued by NWS Medford, OR

Home | Current Version | Previous Version | Text Only | Print | Product List | Glossary On
Versions: 1 2 3 4 5 6 7 8 9 10 11 12 13 14 15 16 17 18 19 20 21 22 23 24 25 26 27 28
000
FTUS46 KMFR 280545
TAFMFR
TAF
KMFR 280545Z 2806/2906 18004KT P6SM SCT080 OVC150
     FM281200 15004KT P6SM -SHRA FEW015 SCT040 OVC070
     FM281500 17006KT P6SM -RA SCT015 BKN035 OVC060 WS020/21035KT
     FM290000 22006KT P6SM -SHRA BKN040 BKN100=

USA.gov is the U.S. government's official web portal to all federal, state and local government web resources and services.